createdAt,value
2019-03-12T00:02:04.354Z,69.33
2019-03-12T00:07:25.628Z,72.50
2019-03-12T00:12:46.823Z,74.61
2019-03-12T00:18:08.235Z,75.35
2019-03-12T00:23:29.564Z,74.04
2019-03-12T00:28:50.637Z,74.20
2019-03-12T00:34:12.176Z,73.59
2019-03-12T00:39:33.426Z,73.84
2019-03-12T00:44:54.585Z,72.93
2019-03-12T00:50:15.709Z,72.69
2019-03-12T00:55:36.879Z,72.72
2019-03-12T01:00:58.102Z,71.71
2019-03-12T01:06:19.290Z,71.61
2019-03-12T01:11:40.491Z,71.05
2019-03-12T01:17:03.141Z,70.80
2019-03-12T01:22:24.149Z,71.74
2019-03-12T01:27:45.454Z,70.74
2019-03-12T01:33:07.845Z,70.30
2019-03-12T01:38:28.687Z,69.78
2019-03-12T01:43:49.817Z,70.91
2019-03-12T01:49:11.740Z,72.01
2019-03-12T01:54:32.716Z,72.81
2019-03-12T01:59:53.959Z,72.96
2019-03-12T02:05:15.306Z,73.47
2019-03-12T02:10:36.515Z,74.18
2019-03-12T02:15:57.714Z,73.55
2019-03-12T02:21:19.201Z,74.03
2019-03-12T02:26:40.538Z,74.74
2019-03-12T02:32:03.701Z,75.70
2019-03-12T02:37:25.335Z,74.58
2019-03-12T02:42:47.689Z,73.38
2019-03-12T02:48:09.336Z,74.34
2019-03-12T02:53:30.589Z,74.39
2019-03-12T02:58:51.745Z,74.84
2019-03-12T03:04:12.797Z,73.33
2019-03-12T03:09:33.723Z,74.08
2019-03-12T03:14:54.754Z,73.31
2019-03-12T03:20:20.911Z,74.87
2019-03-12T03:25:42.052Z,74.46
2019-03-12T03:31:05.548Z,74.59
2019-03-12T03:36:26.845Z,72.87
2019-03-12T03:41:48.217Z,72.47
2019-03-12T03:47:09.602Z,72.99
2019-03-12T03:52:30.686Z,73.42
2019-03-12T03:57:51.720Z,71.31
2019-03-12T04:03:18.977Z,70.80
2019-03-12T04:08:42.837Z,69.67
2019-03-12T04:14:04.364Z,68.43
2019-03-12T04:19:27.395Z,66.71
2019-03-12T04:24:50.586Z,67.47
2019-03-12T04:30:12.502Z,66.49
2019-03-12T04:35:36.036Z,65.56
2019-03-12T04:40:57.482Z,64.41
2019-03-12T04:46:18.967Z,64.28
2019-03-12T04:51:40.081Z,64.22
2019-03-12T04:57:01.661Z,64.56
2019-03-12T05:02:22.979Z,64.83
2019-03-12T05:07:44.931Z,64.67
2019-03-12T05:13:08.548Z,64.85
2019-03-12T05:18:30.584Z,64.96
2019-03-12T05:23:52.376Z,64.49
2019-03-12T05:29:16.114Z,64.26
2019-03-12T05:34:38.911Z,64.79
2019-03-12T05:40:00.637Z,64.61
2019-03-12T05:45:21.989Z,63.98
2019-03-12T05:50:48.113Z,65.00
2019-03-12T05:56:09.834Z,64.75
2019-03-12T06:01:33.132Z,65.02
2019-03-12T06:06:54.608Z,68.20
2019-03-12T06:12:15.844Z,69.58
2019-03-12T06:17:36.936Z,70.88
2019-03-12T06:22:58.662Z,69.45
2019-03-12T06:28:20.835Z,69.23
2019-03-12T06:33:57.124Z,68.49
2019-03-12T06:39:25.306Z,67.73
2019-03-12T06:45:08.575Z,67.62
2019-03-12T06:50:49.544Z,66.85
2019-03-12T06:56:36.420Z,65.75
2019-03-12T07:02:06.048Z,66.99
2019-03-12T07:07:45.987Z,67.43
2019-03-12T07:13:33.682Z,68.28
2019-03-12T07:19:17.333Z,68.59
2019-03-12T07:25:03.713Z,67.94
2019-03-12T07:30:44.723Z,66.93
2019-03-12T07:36:34.381Z,65.82
2019-03-12T07:42:13.804Z,66.40
2019-03-12T07:47:54.968Z,66.12
2019-03-12T07:53:30.185Z,66.20
2019-03-12T07:59:01.139Z,65.71
2019-03-12T08:04:43.437Z,65.94
2019-03-12T08:10:16.763Z,65.90
2019-03-12T08:15:50.484Z,66.04
2019-03-12T08:21:50.379Z,66.50
2019-03-12T08:27:20.320Z,67.09
2019-03-12T08:33:07.181Z,65.63
2019-03-12T08:38:57.149Z,65.75
2019-03-12T08:44:10.309Z,64.40
2019-03-12T08:49:41.652Z,63.81
2019-03-12T08:55:04.714Z,62.06
2019-03-12T09:00:36.763Z,62.24
2019-03-12T09:06:06.134Z,61.46
2019-03-12T09:11:19.166Z,62.35
2019-03-12T09:16:56.343Z,61.85
2019-03-12T09:22:16.643Z,62.03
2019-03-12T09:27:33.062Z,62.51
2019-03-12T09:33:13.172Z,62.60
2019-03-12T09:38:35.753Z,62.54
2019-03-12T09:44:13.432Z,62.68
2019-03-12T09:49:38.876Z,61.63
2019-03-12T09:54:58.969Z,60.79
2019-03-12T10:00:30.076Z,60.65
2019-03-12T10:05:50.551Z,60.64
2019-03-12T10:11:09.936Z,60.46
2019-03-12T10:16:34.988Z,59.75
2019-03-12T10:22:01.654Z,60.03
2019-03-12T10:33:24.310Z,60.65
2019-03-12T10:39:28.544Z,60.55
2019-03-12T10:45:02.782Z,59.55
2019-03-12T10:50:36.730Z,59.81
2019-03-12T10:56:13.044Z,59.46
2019-03-12T11:01:52.526Z,59.54
2019-03-12T11:07:16.791Z,59.72
2019-03-12T11:12:37.696Z,59.42
2019-03-12T11:18:12.649Z,59.62
2019-03-12T11:23:34.114Z,59.80
2019-03-12T11:28:49.156Z,60.06
2019-03-12T11:33:52.420Z,59.47
2019-03-12T11:38:56.684Z,60.20
2019-03-12T11:44:00.037Z,60.27
2019-03-12T11:49:06.153Z,59.34
2019-03-12T11:54:50.212Z,60.70
2019-03-12T12:00:56.223Z,59.96
2019-03-12T12:06:24.085Z,59.95
2019-03-12T12:11:28.691Z,59.40
2019-03-12T12:16:31.466Z,59.97
2019-03-12T12:21:34.605Z,59.28
2019-03-12T12:26:37.572Z,59.21
2019-03-12T12:31:40.355Z,60.21
2019-03-12T12:36:44.069Z,60.52
2019-03-12T12:41:46.839Z,60.21
2019-03-12T12:46:50.102Z,60.94
2019-03-12T12:51:57.596Z,60.75
2019-03-12T12:57:02.083Z,60.67
2019-03-12T13:02:05.345Z,60.33
2019-03-12T13:07:08.794Z,60.46
2019-03-12T13:12:11.518Z,60.18
2019-03-12T13:17:14.160Z,59.66
2019-03-12T13:22:17.146Z,60.67
2019-03-12T13:27:20.452Z,60.05
2019-03-12T13:32:23.123Z,60.14
2019-03-12T13:37:26.421Z,60.15
2019-03-12T13:42:29.214Z,60.30
2019-03-12T13:47:31.987Z,61.10
2019-03-12T13:52:34.885Z,62.29
2019-03-12T13:57:37.635Z,61.83
2019-03-12T14:02:40.992Z,61.41
2019-03-12T14:07:43.749Z,61.40
2019-03-12T14:12:48.805Z,60.45
2019-03-12T14:17:51.751Z,61.08
2019-03-12T14:22:54.695Z,61.35
2019-03-12T14:27:57.504Z,61.27
2019-03-12T14:33:00.282Z,60.78
2019-03-12T14:38:04.081Z,60.79
2019-03-12T14:43:07.097Z,60.53
2019-03-12T14:48:39.245Z,60.60
2019-03-12T14:53:42.219Z,60.71
2019-03-12T14:58:46.094Z,61.81
2019-03-12T15:03:49.329Z,61.56
2019-03-12T15:08:52.125Z,62.62
2019-03-12T15:13:54.843Z,63.34
2019-03-12T15:18:57.458Z,62.70
2019-03-12T15:24:00.178Z,62.06
2019-03-12T15:29:21.548Z,61.93
2019-03-12T15:34:42.641Z,60.84
2019-03-12T15:40:06.172Z,59.75
2019-03-12T15:45:27.205Z,59.93
2019-03-12T15:50:48.949Z,59.95
2019-03-12T15:56:10.159Z,59.83
2019-03-12T16:01:31.241Z,59.51
2019-03-12T16:07:01.198Z,59.43
2019-03-12T16:12:15.974Z,59.20
2019-03-12T16:17:37.016Z,57.89
2019-03-12T16:22:58.781Z,58.63
2019-03-12T16:28:19.988Z,58.80
2019-03-12T16:33:41.162Z,59.32
2019-03-12T16:39:02.521Z,59.39
2019-03-12T16:44:23.736Z,59.88
2019-03-12T16:49:45.716Z,59.05
2019-03-12T16:55:07.553Z,59.80
2019-03-12T17:00:28.687Z,59.06
2019-03-12T17:05:49.987Z,57.96
2019-03-12T17:11:12.079Z,57.74
2019-03-12T17:16:34.466Z,58.26
2019-03-12T17:21:56.462Z,57.70
2019-03-12T17:27:17.851Z,58.82
2019-03-12T17:32:39.581Z,58.94
2019-03-12T17:38:01.807Z,58.43
2019-03-12T17:43:23.360Z,59.12
2019-03-12T17:48:45.310Z,59.32
2019-03-12T17:54:06.620Z,56.89
2019-03-12T17:59:27.658Z,58.08
2019-03-12T18:04:50.051Z,57.67
2019-03-12T18:10:11.537Z,57.81
2019-03-12T18:15:32.983Z,57.77
2019-03-12T18:20:54.580Z,57.62
2019-03-12T18:26:16.050Z,58.34
2019-03-12T18:31:37.439Z,57.55
2019-03-12T18:36:59.119Z,56.45
2019-03-12T18:42:20.269Z,57.38
2019-03-12T18:47:41.528Z,58.25
2019-03-12T18:53:04.446Z,57.13
2019-03-12T18:58:26.107Z,57.36
2019-03-12T19:03:51.048Z,57.86
2019-03-12T19:09:14.920Z,57.57
2019-03-12T19:14:36.764Z,57.48
2019-03-12T19:19:59.010Z,57.21
2019-03-12T19:25:20.896Z,56.31
2019-03-12T19:30:42.180Z,56.52
2019-03-12T19:36:03.886Z,56.24
2019-03-12T19:41:25.683Z,57.00
2019-03-12T19:46:46.989Z,56.77
2019-03-12T19:52:08.372Z,56.95
2019-03-12T19:57:29.979Z,57.72
2019-03-12T20:02:54.936Z,56.52
2019-03-12T20:08:16.503Z,57.39
2019-03-12T20:14:43.946Z,57.66
2019-03-12T20:20:46.041Z,57.04
2019-03-12T20:26:54.503Z,57.47
2019-03-12T20:32:59.158Z,57.44
2019-03-12T20:39:11.312Z,57.03
2019-03-12T20:45:11.425Z,57.53
2019-03-12T20:51:17.021Z,58.00
2019-03-12T20:57:15.648Z,57.30
2019-03-12T21:03:14.593Z,57.65
2019-03-12T21:09:12.885Z,57.81
2019-03-12T21:15:15.873Z,57.94
2019-03-12T21:21:14.074Z,57.46
2019-03-12T21:27:05.883Z,57.05
2019-03-12T21:32:27.467Z,57.17
2019-03-12T21:37:49.045Z,57.05
2019-03-12T21:43:10.151Z,56.89
2019-03-12T21:48:31.622Z,57.78
2019-03-12T21:53:53.041Z,57.89
2019-03-12T21:59:14.229Z,58.19
2019-03-12T22:04:35.306Z,57.88
2019-03-12T22:09:56.544Z,58.06
2019-03-12T22:15:17.678Z,57.53
2019-03-12T22:20:38.891Z,57.61
2019-03-12T22:25:59.863Z,57.16
2019-03-12T22:31:21.178Z,57.74
2019-03-12T22:36:42.383Z,57.33
2019-03-12T22:42:03.795Z,57.86
2019-03-12T22:47:25.091Z,57.52
2019-03-12T22:52:47.443Z,57.20
2019-03-12T22:58:08.497Z,57.41
2019-03-12T23:03:29.719Z,56.43
2019-03-12T23:08:50.944Z,56.42
2019-03-12T23:14:12.057Z,56.77
2019-03-12T23:19:33.245Z,57.62
2019-03-12T23:24:54.330Z,57.90
2019-03-12T23:30:15.649Z,58.02
2019-03-12T23:35:37.055Z,58.56
2019-03-12T23:40:58.270Z,58.36
2019-03-12T23:46:19.942Z,58.50
2019-03-12T23:51:41.293Z,58.66
2019-03-12T23:57:02.698Z,58.11
